createdAt,value
2019-03-23T00:01:55.111Z,101.00
2019-03-23T00:04:28.326Z,105.03
2019-03-23T00:06:59.350Z,103.43
2019-03-23T00:09:30.366Z,110.00
2019-03-23T00:12:01.469Z,98.30
2019-03-23T00:14:32.558Z,99.90
2019-03-23T00:17:03.573Z,105.50
2019-03-23T00:19:34.592Z,87.93
2019-03-23T00:22:05.929Z,93.53
2019-03-23T00:24:36.945Z,91.67
2019-03-23T00:27:08.011Z,111.90
2019-03-23T00:29:39.013Z,100.63
2019-03-23T00:32:10.093Z,99.77
2019-03-23T00:34:41.148Z,91.47
2019-03-23T00:37:12.138Z,104.20
2019-03-23T00:39:45.397Z,93.70
2019-03-23T00:42:16.413Z,92.13
2019-03-23T00:44:47.517Z,102.63
2019-03-23T00:47:19.786Z,100.70
2019-03-23T00:49:50.829Z,99.83
2019-03-23T00:52:21.941Z,95.30
2019-03-23T00:54:52.977Z,107.07
2019-03-23T00:57:24.013Z,102.97
2019-03-23T00:59:55.116Z,100.83
2019-03-23T01:02:26.172Z,106.13
2019-03-23T01:04:57.409Z,115.60
2019-03-23T01:07:28.616Z,141.77
2019-03-23T01:09:59.667Z,146.77
2019-03-23T01:12:30.721Z,167.63
2019-03-23T01:15:01.908Z,263.10
2019-03-23T01:17:33.070Z,155.17
2019-03-23T01:20:04.093Z,152.93
2019-03-23T01:22:35.158Z,251.43
2019-03-23T01:25:07.086Z,131.90
2019-03-23T01:27:38.166Z,150.80
2019-03-23T01:30:09.752Z,227.27
2019-03-23T01:32:40.964Z,183.77
2019-03-23T01:35:12.278Z,294.50
2019-03-23T01:37:43.266Z,219.73
2019-03-23T01:40:14.608Z,182.57
2019-03-23T01:42:46.604Z,462.13
2019-03-23T01:45:17.695Z,183.37
2019-03-23T01:47:48.675Z,175.43
2019-03-23T01:50:19.799Z,253.87
2019-03-23T01:52:50.792Z,371.90
2019-03-23T01:55:21.785Z,142.40
2019-03-23T01:57:52.786Z,160.97
2019-03-23T02:00:23.785Z,252.70
2019-03-23T02:02:54.868Z,218.13
2019-03-23T02:05:25.834Z,168.83
2019-03-23T02:07:56.872Z,242.93
2019-03-23T02:10:27.953Z,260.13
2019-03-23T02:13:00.009Z,269.53
2019-03-23T02:15:30.987Z,186.47
2019-03-23T02:18:02.035Z,157.70
2019-03-23T02:20:32.999Z,217.90
2019-03-23T02:23:04.121Z,131.87
2019-03-23T02:25:35.092Z,205.40
2019-03-23T02:28:06.090Z,138.80
2019-03-23T02:30:37.111Z,197.43
2019-03-23T02:33:08.136Z,133.27
2019-03-23T02:35:39.119Z,202.60
2019-03-23T02:38:10.145Z,176.67
2019-03-23T02:40:41.235Z,136.37
2019-03-23T02:43:12.233Z,114.30
2019-03-23T02:45:43.479Z,190.10
2019-03-23T02:48:14.568Z,144.27
2019-03-23T02:50:45.789Z,102.37
2019-03-23T02:53:16.858Z,119.93
2019-03-23T02:55:47.977Z,117.93
2019-03-23T02:58:18.983Z,83.90
2019-03-23T03:00:50.157Z,122.90
2019-03-23T03:03:21.178Z,82.93
2019-03-23T03:05:52.227Z,108.53
2019-03-23T03:08:23.301Z,128.77
2019-03-23T03:10:54.346Z,106.00
2019-03-23T03:13:25.508Z,98.87
2019-03-23T03:15:56.609Z,73.37
2019-03-23T03:18:27.707Z,100.73
2019-03-23T03:20:58.703Z,108.53
2019-03-23T03:23:29.736Z,203.00
2019-03-23T03:26:00.792Z,96.07
2019-03-23T03:28:31.740Z,106.60
2019-03-23T03:31:03.890Z,161.77
2019-03-23T03:33:34.907Z,97.47
2019-03-23T03:36:05.922Z,221.40
2019-03-23T03:38:36.904Z,148.93
2019-03-23T03:41:08.046Z,144.07
2019-03-23T03:43:39.072Z,115.33
2019-03-23T03:46:10.035Z,116.70
2019-03-23T03:48:41.082Z,98.90
2019-03-23T03:51:12.166Z,146.87
2019-03-23T03:53:44.323Z,117.20
2019-03-23T03:56:15.323Z,117.70
2019-03-23T03:58:46.291Z,86.53
2019-03-23T04:01:17.327Z,142.10
2019-03-23T04:03:48.323Z,95.17
2019-03-23T04:06:19.622Z,97.97
2019-03-23T04:08:50.812Z,112.87
2019-03-23T04:11:21.775Z,99.00
2019-03-23T04:13:52.753Z,115.73
2019-03-23T04:16:23.788Z,119.57
2019-03-23T04:18:54.876Z,98.20
2019-03-23T04:21:25.892Z,78.27
2019-03-23T04:23:56.872Z,124.67
2019-03-23T04:26:27.883Z,97.37
2019-03-23T04:28:58.856Z,87.00
2019-03-23T04:31:30.886Z,87.80
2019-03-23T04:34:01.931Z,84.33
2019-03-23T04:36:32.896Z,93.07
2019-03-23T04:39:04.756Z,104.20
2019-03-23T04:41:35.839Z,101.43
2019-03-23T04:44:06.889Z,93.20
2019-03-23T04:46:37.883Z,81.17
2019-03-23T04:49:08.888Z,117.27
2019-03-23T04:51:40.173Z,107.47
2019-03-23T04:54:11.201Z,93.23
2019-03-23T04:56:42.209Z,100.80
2019-03-23T04:59:13.261Z,70.57
2019-03-23T05:01:44.389Z,97.47
2019-03-23T05:04:15.373Z,77.90
2019-03-23T05:06:46.401Z,131.10
2019-03-23T05:09:19.440Z,80.63
2019-03-23T05:11:50.552Z,79.10
2019-03-23T05:14:21.589Z,98.63
2019-03-23T05:16:52.979Z,87.67
2019-03-23T05:19:24.015Z,121.77
2019-03-23T05:21:55.106Z,107.47
2019-03-23T05:24:26.188Z,84.73
2019-03-23T05:26:57.295Z,112.43
2019-03-23T05:29:28.442Z,118.03
2019-03-23T05:31:59.479Z,108.80
2019-03-23T05:34:30.642Z,75.63
2019-03-23T05:37:01.722Z,86.67
2019-03-23T05:39:32.812Z,69.57
2019-03-23T05:42:03.976Z,90.00
2019-03-23T05:44:35.080Z,102.20
2019-03-23T05:47:06.268Z,85.47
2019-03-23T05:49:37.716Z,93.83
2019-03-23T05:52:08.912Z,88.37
2019-03-23T05:54:40.400Z,141.80
2019-03-23T05:57:11.636Z,85.97
2019-03-23T05:59:42.722Z,62.37
2019-03-23T06:02:13.889Z,104.57
2019-03-23T06:04:44.837Z,75.17
2019-03-23T06:07:15.954Z,107.00
2019-03-23T06:09:46.938Z,63.53
2019-03-23T06:12:17.932Z,123.00
2019-03-23T06:14:50.059Z,81.33
2019-03-23T06:17:21.036Z,64.87
2019-03-23T06:19:52.084Z,73.70
2019-03-23T06:22:23.079Z,92.30
2019-03-23T06:24:54.130Z,117.50
2019-03-23T06:27:25.215Z,90.53
2019-03-23T06:29:56.279Z,121.40
2019-03-23T06:32:27.283Z,69.33
2019-03-23T06:34:58.385Z,80.87
2019-03-23T06:37:29.385Z,89.07
2019-03-23T06:40:00.509Z,103.47
2019-03-23T06:42:31.573Z,79.37
2019-03-23T06:45:02.705Z,78.33
2019-03-23T06:47:33.758Z,89.97
2019-03-23T06:50:05.655Z,62.10
2019-03-23T06:52:38.655Z,71.23
2019-03-23T06:55:10.660Z,63.70
2019-03-23T06:57:41.670Z,54.57
2019-03-23T07:00:15.701Z,65.60
2019-03-23T07:02:46.958Z,54.37
2019-03-23T07:05:18.010Z,57.03
2019-03-23T07:07:49.083Z,61.63
2019-03-23T07:10:20.520Z,62.40
2019-03-23T07:12:52.485Z,59.47
2019-03-23T07:15:23.610Z,51.80
2019-03-23T07:17:54.642Z,54.47
2019-03-23T07:20:25.594Z,68.97
2019-03-23T07:22:56.738Z,76.43
2019-03-23T07:25:27.840Z,58.40
2019-03-23T07:27:59.534Z,71.70
2019-03-23T07:30:30.486Z,60.60
2019-03-23T07:33:01.573Z,58.10
2019-03-23T07:35:34.740Z,79.77
2019-03-23T07:38:05.776Z,50.87
2019-03-23T07:40:36.850Z,52.00
2019-03-23T07:43:08.010Z,54.97
2019-03-23T07:45:39.190Z,49.57
2019-03-23T07:48:10.183Z,56.47
2019-03-23T07:50:41.213Z,51.23
2019-03-23T07:53:12.259Z,63.53
2019-03-23T07:55:43.306Z,61.50
2019-03-23T07:58:14.445Z,69.63
2019-03-23T08:00:45.483Z,68.03
2019-03-23T08:03:16.439Z,52.07
2019-03-23T08:05:47.499Z,65.10
2019-03-23T08:08:18.535Z,55.90
2019-03-23T08:10:49.774Z,79.23
2019-03-23T08:13:20.819Z,58.43
2019-03-23T08:15:51.893Z,69.87
2019-03-23T08:18:23.044Z,63.73
2019-03-23T08:20:54.008Z,63.93
2019-03-23T08:23:25.532Z,64.70
2019-03-23T08:25:56.621Z,57.33
2019-03-23T08:28:27.670Z,66.77
2019-03-23T08:30:58.961Z,60.20
2019-03-23T08:33:29.974Z,69.77
2019-03-23T08:36:00.988Z,62.07
2019-03-23T08:38:32.055Z,59.97
2019-03-23T08:41:03.062Z,60.10
2019-03-23T08:43:34.084Z,62.73
2019-03-23T08:46:05.075Z,55.73
2019-03-23T08:48:36.112Z,61.23
2019-03-23T08:51:07.092Z,57.27
2019-03-23T08:53:38.193Z,60.33
2019-03-23T08:56:09.199Z,58.40
2019-03-23T08:58:37.925Z,55.20
2019-03-23T09:01:08.980Z,61.50
2019-03-23T09:03:40.027Z,58.00
2019-03-23T09:06:11.128Z,53.43
2019-03-23T09:08:42.169Z,57.50
2019-03-23T09:11:20.466Z,66.57
2019-03-23T09:13:45.981Z,65.97
2019-03-23T09:16:17.050Z,59.10
2019-03-23T09:18:48.187Z,70.53
2019-03-23T09:21:19.203Z,64.03
2019-03-23T09:23:50.207Z,64.13
2019-03-23T09:26:21.589Z,69.40
2019-03-23T09:28:52.606Z,64.03
2019-03-23T09:31:23.651Z,71.33
2019-03-23T09:33:54.993Z,60.53
2019-03-23T09:36:26.127Z,64.03
2019-03-23T09:38:57.244Z,67.60
2019-03-23T09:41:28.340Z,64.77
2019-03-23T09:43:59.327Z,65.23
2019-03-23T09:46:30.855Z,63.97
2019-03-23T09:49:01.897Z,63.00
2019-03-23T09:51:32.906Z,63.77
2019-03-23T09:54:03.860Z,58.60
2019-03-23T09:56:34.848Z,53.93
2019-03-23T09:59:05.994Z,57.10
2019-03-23T10:01:37.104Z,61.43
2019-03-23T10:04:09.054Z,65.40
2019-03-23T10:06:40.046Z,62.87
2019-03-23T10:09:11.190Z,56.57
2019-03-23T10:11:42.316Z,60.73
2019-03-23T10:14:13.501Z,74.50
2019-03-23T10:16:44.582Z,63.57
2019-03-23T10:19:15.708Z,51.80
2019-03-23T10:21:46.892Z,59.03
2019-03-23T10:24:17.972Z,60.10
2019-03-23T10:26:49.056Z,62.07
2019-03-23T10:29:20.085Z,58.83
2019-03-23T10:31:51.038Z,59.40
2019-03-23T10:34:22.206Z,58.13
2019-03-23T10:36:53.198Z,57.80
2019-03-23T10:39:24.143Z,65.13
2019-03-23T10:41:55.151Z,60.43
2019-03-23T10:44:26.171Z,55.50
2019-03-23T10:46:57.265Z,60.50
2019-03-23T10:49:28.308Z,54.83
2019-03-23T10:51:59.305Z,56.67
2019-03-23T10:54:30.375Z,57.27
2019-03-23T10:57:01.345Z,52.57
2019-03-23T10:59:32.404Z,54.07
2019-03-23T11:02:03.350Z,61.37
2019-03-23T11:04:34.454Z,60.77
2019-03-23T11:07:05.496Z,55.00
2019-03-23T11:09:36.603Z,53.10
2019-03-23T11:12:07.577Z,55.20
2019-03-23T11:14:38.573Z,56.47
2019-03-23T11:17:09.541Z,58.57
2019-03-23T11:19:41.541Z,55.40
2019-03-23T11:22:12.532Z,53.83
2019-03-23T11:24:43.521Z,50.27
2019-03-23T11:27:14.636Z,59.23
2019-03-23T11:29:47.284Z,55.43
2019-03-23T11:32:18.252Z,55.93
2019-03-23T11:34:49.266Z,42.30
2019-03-23T11:37:20.347Z,49.10
2019-03-23T11:39:51.487Z,50.30
2019-03-23T11:42:22.603Z,48.37
2019-03-23T11:44:53.671Z,51.13
2019-03-23T11:47:24.788Z,45.63
2019-03-23T11:49:55.790Z,50.00
2019-03-23T11:52:26.782Z,43.40
2019-03-23T11:54:57.836Z,44.43
2019-03-23T11:57:28.887Z,46.23
2019-03-23T12:00:00.186Z,49.40
2019-03-23T12:02:31.368Z,50.37
2019-03-23T12:05:02.421Z,48.03
2019-03-23T12:07:33.603Z,49.10
2019-03-23T12:10:05.429Z,43.50
2019-03-23T12:12:36.639Z,43.70
2019-03-23T12:15:09.577Z,38.97
2019-03-23T12:17:40.639Z,41.97
2019-03-23T12:20:11.787Z,38.23
2019-03-23T12:22:43.826Z,40.40
2019-03-23T12:25:14.967Z,41.27
2019-03-23T12:27:46.070Z,42.00
2019-03-23T12:30:17.891Z,41.27
2019-03-23T12:32:48.908Z,39.13
2019-03-23T12:35:20.011Z,34.53
2019-03-23T12:37:51.093Z,36.67
2019-03-23T12:40:22.233Z,35.33
2019-03-23T12:42:53.272Z,38.97
2019-03-23T12:45:24.500Z,32.50
2019-03-23T12:47:55.727Z,32.90
2019-03-23T12:50:26.833Z,30.00
2019-03-23T12:52:57.952Z,38.17
2019-03-23T12:55:29.162Z,34.77
2019-03-23T12:58:00.302Z,37.63
2019-03-23T13:00:32.366Z,36.60
2019-03-23T13:03:03.394Z,31.93
2019-03-23T13:05:34.490Z,36.20
2019-03-23T13:08:05.440Z,36.20
2019-03-23T13:10:36.973Z,33.73
2019-03-23T13:13:08.016Z,31.67
2019-03-23T13:15:39.230Z,40.30
2019-03-23T13:18:11.323Z,30.73
2019-03-23T13:20:42.515Z,33.80
2019-03-23T13:23:13.539Z,33.83
2019-03-23T13:25:44.594Z,32.83
2019-03-23T13:28:15.569Z,32.17
2019-03-23T13:30:46.718Z,31.10
2019-03-23T13:33:17.747Z,28.63
2019-03-23T13:35:49.106Z,26.53
2019-03-23T13:38:21.293Z,24.20
2019-03-23T13:40:52.394Z,25.93
2019-03-23T13:43:23.613Z,31.90
2019-03-23T13:45:54.680Z,26.23
2019-03-23T13:48:25.923Z,22.93
2019-03-23T13:50:57.020Z,25.77
2019-03-23T13:53:28.188Z,25.63
2019-03-23T13:55:59.189Z,37.83
2019-03-23T13:58:30.413Z,32.13
2019-03-23T14:01:01.507Z,26.40
2019-03-23T14:03:32.523Z,34.13
2019-03-23T14:06:03.491Z,24.47
2019-03-23T14:08:34.586Z,26.53
2019-03-23T14:11:05.702Z,26.90
2019-03-23T14:13:36.757Z,25.20
2019-03-23T14:16:07.828Z,24.43
2019-03-23T14:18:38.867Z,23.07
2019-03-23T14:21:09.857Z,25.43
2019-03-23T14:23:40.898Z,27.37
2019-03-23T14:26:11.976Z,24.13
2019-03-23T14:28:43.226Z,25.00
2019-03-23T14:31:14.409Z,26.10
2019-03-23T14:33:45.486Z,24.50
2019-03-23T14:36:17.657Z,24.47
2019-03-23T14:38:48.876Z,19.50
2019-03-23T14:41:19.892Z,25.10
2019-03-23T14:43:51.848Z,25.07
2019-03-23T14:46:22.891Z,23.47
2019-03-23T14:48:53.988Z,22.63
2019-03-23T14:51:25.042Z,23.27
2019-03-23T14:53:56.100Z,22.30
2019-03-23T14:56:31.484Z,26.70
2019-03-23T14:58:59.956Z,25.47
2019-03-23T15:01:31.016Z,19.43
2019-03-23T15:04:02.022Z,20.13
2019-03-23T15:06:33.582Z,22.93
2019-03-23T15:09:05.659Z,33.63
2019-03-23T15:11:36.899Z,29.10
2019-03-23T15:14:07.912Z,23.93
2019-03-23T15:16:39.130Z,19.60
2019-03-23T15:19:10.250Z,19.60
2019-03-23T15:21:41.555Z,19.77
2019-03-23T15:24:12.688Z,25.70
2019-03-23T15:26:43.955Z,17.83
2019-03-23T15:29:15.050Z,21.93
2019-03-23T15:31:46.145Z,19.07
2019-03-23T15:34:17.475Z,25.53
2019-03-23T15:36:48.470Z,25.17
2019-03-23T15:39:19.483Z,27.27
2019-03-23T15:41:50.623Z,19.97
2019-03-23T15:44:21.647Z,21.70
2019-03-23T15:46:52.636Z,21.60
2019-03-23T15:49:23.753Z,13.67
2019-03-23T15:51:54.787Z,22.80
2019-03-23T15:54:25.771Z,17.40
2019-03-23T15:56:56.914Z,14.13
2019-03-23T15:59:27.844Z,17.07
2019-03-23T16:01:59.000Z,15.87
2019-03-23T16:04:30.113Z,16.97
2019-03-23T16:07:01.159Z,16.10
2019-03-23T16:09:32.239Z,25.80
2019-03-23T16:12:03.380Z,19.83
2019-03-23T16:14:34.467Z,20.10
2019-03-23T16:17:05.591Z,20.67
2019-03-23T16:19:36.671Z,17.17
2019-03-23T16:22:08.660Z,15.10
2019-03-23T16:24:39.629Z,15.30
2019-03-23T16:27:11.018Z,14.20
2019-03-23T16:29:42.112Z,13.20
2019-03-23T16:32:13.177Z,15.50
2019-03-23T16:34:44.289Z,14.63
2019-03-23T16:37:15.377Z,17.70
2019-03-23T16:39:46.329Z,16.97
2019-03-23T16:42:17.747Z,14.27
2019-03-23T16:44:48.862Z,15.30
2019-03-23T16:47:19.976Z,18.50
2019-03-23T16:49:51.084Z,12.97
2019-03-23T16:52:22.132Z,15.20
2019-03-23T16:54:53.306Z,13.17
2019-03-23T16:57:24.413Z,11.47
2019-03-23T16:59:55.575Z,11.90
2019-03-23T17:02:26.962Z,16.47
2019-03-23T17:04:58.082Z,17.77
2019-03-23T17:07:29.362Z,13.47
2019-03-23T17:10:00.809Z,16.33
2019-03-23T17:12:31.922Z,32.13
2019-03-23T17:15:02.984Z,19.87
2019-03-23T17:17:34.704Z,21.47
2019-03-23T17:20:06.007Z,21.20
2019-03-23T17:22:37.147Z,26.90
2019-03-23T17:25:08.218Z,23.77
2019-03-23T17:27:39.490Z,24.93
2019-03-23T17:30:11.750Z,25.57
2019-03-23T17:32:42.811Z,25.87
2019-03-23T17:35:14.162Z,32.17
2019-03-23T17:37:45.389Z,31.47
2019-03-23T17:40:16.490Z,31.63
2019-03-23T17:42:47.582Z,29.87
2019-03-23T17:45:18.775Z,27.97
2019-03-23T17:47:49.849Z,24.13
2019-03-23T17:50:23.979Z,24.27
2019-03-23T17:52:55.077Z,25.00
2019-03-23T17:55:26.097Z,21.87
2019-03-23T17:57:57.289Z,19.80
2019-03-23T18:00:28.471Z,190.33
2019-03-23T18:02:59.490Z,183.10
2019-03-23T18:05:30.503Z,110.73
2019-03-23T18:08:01.548Z,73.33
2019-03-23T18:10:32.602Z,96.60
2019-03-23T18:13:03.743Z,72.40
2019-03-23T18:15:34.779Z,68.47
2019-03-23T18:18:07.640Z,44.67
2019-03-23T18:20:38.671Z,37.50
2019-03-23T18:23:10.044Z,45.63
2019-03-23T18:25:40.998Z,53.47
2019-03-23T18:28:12.113Z,148.00
2019-03-23T18:30:44.247Z,129.17
2019-03-23T18:33:15.388Z,55.13
2019-03-23T18:35:46.367Z,73.87
2019-03-23T18:38:17.496Z,63.00
2019-03-23T18:40:48.507Z,56.30
2019-03-23T18:43:27.466Z,44.83
2019-03-23T18:45:52.554Z,48.80
2019-03-23T18:48:23.673Z,56.83
2019-03-23T18:50:54.767Z,45.67
2019-03-23T18:53:25.761Z,54.70
2019-03-23T18:55:56.769Z,63.10
2019-03-23T18:58:27.802Z,59.73
2019-03-23T19:00:59.220Z,66.97
2019-03-23T19:03:30.291Z,59.93
2019-03-23T19:06:01.454Z,61.20
2019-03-23T19:08:32.543Z,75.43
2019-03-23T19:11:03.765Z,75.03
2019-03-23T19:13:38.185Z,75.10
2019-03-23T19:16:07.598Z,66.13
2019-03-23T19:18:39.848Z,71.97
2019-03-23T19:21:10.984Z,79.47
2019-03-23T19:23:42.021Z,68.63
2019-03-23T19:26:13.059Z,57.70
2019-03-23T19:28:44.076Z,61.80
2019-03-23T19:31:15.105Z,69.80
2019-03-23T19:33:46.236Z,65.93
2019-03-23T19:36:17.370Z,63.40
2019-03-23T19:38:50.093Z,86.27
2019-03-23T19:41:21.232Z,63.93
2019-03-23T19:43:52.399Z,66.03
2019-03-23T19:46:23.468Z,62.40
2019-03-23T19:48:54.457Z,50.23
2019-03-23T19:51:25.468Z,75.90
2019-03-23T19:53:57.587Z,73.10
2019-03-23T19:56:28.575Z,80.33
2019-03-23T19:58:59.586Z,76.80
2019-03-23T20:01:30.740Z,90.87
2019-03-23T20:04:01.764Z,71.40
2019-03-23T20:06:33.146Z,96.27
2019-03-23T20:09:05.506Z,79.93
2019-03-23T20:11:36.658Z,84.20
2019-03-23T20:14:07.736Z,90.07
2019-03-23T20:16:38.852Z,108.83
2019-03-23T20:19:09.971Z,96.17
2019-03-23T20:21:41.059Z,102.00
2019-03-23T20:24:12.137Z,80.80
2019-03-23T20:26:43.194Z,94.00
2019-03-23T20:29:14.256Z,94.40
2019-03-23T20:31:45.603Z,93.70
2019-03-23T20:34:16.854Z,97.83
2019-03-23T20:36:47.981Z,86.10
2019-03-23T20:39:19.041Z,146.10
2019-03-23T20:41:50.150Z,141.53
2019-03-23T20:44:21.254Z,124.97
2019-03-23T20:46:52.473Z,105.70
2019-03-23T20:49:24.285Z,124.03
2019-03-23T20:51:55.785Z,103.53
2019-03-23T20:54:27.625Z,115.07
2019-03-23T20:56:58.764Z,119.83
2019-03-23T20:59:31.728Z,106.13
2019-03-23T21:02:02.685Z,133.33
2019-03-23T21:04:33.836Z,117.33
2019-03-23T21:07:04.879Z,125.43
2019-03-23T21:09:35.971Z,132.73
2019-03-23T21:12:07.137Z,109.27
2019-03-23T21:14:38.219Z,112.87
2019-03-23T21:17:09.345Z,92.37
2019-03-23T21:19:40.422Z,122.57
2019-03-23T21:22:11.571Z,128.57
2019-03-23T21:24:42.763Z,124.07
2019-03-23T21:27:15.025Z,133.93
2019-03-23T21:29:46.086Z,118.00
2019-03-23T21:32:18.185Z,100.03
2019-03-23T21:34:49.373Z,137.40
2019-03-23T21:37:20.483Z,134.70
2019-03-23T21:39:51.666Z,130.90
2019-03-23T21:42:22.972Z,152.13
2019-03-23T21:44:54.172Z,171.13
2019-03-23T21:47:25.224Z,135.33
2019-03-23T21:49:56.286Z,139.90
2019-03-23T21:52:27.344Z,138.43
2019-03-23T21:54:58.488Z,141.73
2019-03-23T21:57:29.590Z,127.37
2019-03-23T22:00:00.572Z,128.57
2019-03-23T22:02:32.778Z,121.00
2019-03-23T22:05:03.858Z,140.47
2019-03-23T22:07:34.940Z,139.57
2019-03-23T22:10:07.559Z,140.07
2019-03-23T22:12:38.652Z,152.30
2019-03-23T22:15:10.785Z,133.03
2019-03-23T22:17:41.795Z,138.83
2019-03-23T22:20:13.122Z,143.33
2019-03-23T22:22:44.149Z,151.40
2019-03-23T22:25:15.139Z,135.67
2019-03-23T22:27:46.145Z,139.37
2019-03-23T22:30:17.879Z,133.63
2019-03-23T22:32:48.871Z,136.50
2019-03-23T22:35:19.881Z,147.83
2019-03-23T22:37:50.927Z,129.13
2019-03-23T22:40:21.893Z,130.93
2019-03-23T22:42:52.903Z,137.03
2019-03-23T22:45:23.845Z,133.57
2019-03-23T22:47:54.839Z,127.17
2019-03-23T22:50:25.893Z,142.37
2019-03-23T22:52:56.934Z,137.03
2019-03-23T22:55:27.967Z,103.27
2019-03-23T22:57:59.033Z,123.27
2019-03-23T23:00:48.968Z,132.40
2019-03-23T23:03:20.061Z,131.53
2019-03-23T23:05:51.073Z,134.23
2019-03-23T23:08:22.281Z,133.80
2019-03-23T23:10:54.240Z,127.33
2019-03-23T23:13:25.394Z,135.47
2019-03-23T23:15:56.578Z,126.27
2019-03-23T23:18:27.803Z,134.83
2019-03-23T23:20:58.832Z,135.27
2019-03-23T23:23:29.946Z,136.13
2019-03-23T23:26:01.066Z,146.63
2019-03-23T23:28:32.170Z,154.43
2019-03-23T23:31:03.264Z,133.77
2019-03-23T23:33:34.382Z,129.50
2019-03-23T23:36:05.425Z,135.07
2019-03-23T23:38:36.478Z,126.70
2019-03-23T23:41:07.504Z,126.87
2019-03-23T23:43:38.624Z,155.93
2019-03-23T23:46:09.686Z,134.13
2019-03-23T23:48:50.930Z,137.07
2019-03-23T23:51:13.314Z,130.67
2019-03-23T23:53:44.355Z,127.67
2019-03-23T23:56:15.397Z,127.53
2019-03-23T23:58:46.551Z,124.63
